sensor_id;sensor_type;location;lat;lon;timestamp;pressure;altitude;pressure_sealevel;temperature;humidity
55315;BME280;41619;42.816;23.226;2023-08-07T00:00:26;94985.53;;;16.11;72.46
55315;BME280;41619;42.816;23.226;2023-08-07T00:02:51;94985.94;;;16.09;72.51
55315;BME280;41619;42.816;23.226;2023-08-07T00:05:17;94984.34;;;16.12;72.62
55315;BME280;41619;42.816;23.226;2023-08-07T00:07:43;94997.00;;;16.09;72.50
55315;BME280;41619;42.816;23.226;2023-08-07T00:10:09;94987.56;;;16.07;72.66
55315;BME280;41619;42.816;23.226;2023-08-07T00:12:34;94984.84;;;16.03;72.56
55315;BME280;41619;42.816;23.226;2023-08-07T00:15:01;94993.13;;;16.03;72.67
55315;BME280;41619;42.816;23.226;2023-08-07T00:17:26;94994.72;;;16.00;72.70
55315;BME280;41619;42.816;23.226;2023-08-07T00:19:52;94993.97;;;15.96;72.56
55315;BME280;41619;42.816;23.226;2023-08-07T00:22:17;94986.94;;;15.92;72.94
55315;BME280;41619;42.816;23.226;2023-08-07T00:24:43;94996.03;;;15.89;72.93
55315;BME280;41619;42.816;23.226;2023-08-07T00:27:08;94990.97;;;15.84;72.97
55315;BME280;41619;42.816;23.226;2023-08-07T00:29:36;94998.09;;;15.81;72.93
55315;BME280;41619;42.816;23.226;2023-08-07T00:32:02;94991.44;;;15.75;73.03
55315;BME280;41619;42.816;23.226;2023-08-07T00:34:28;94986.75;;;15.72;73.11
55315;BME280;41619;42.816;23.226;2023-08-07T00:36:53;94990.72;;;15.67;73.42
55315;BME280;41619;42.816;23.226;2023-08-07T00:39:18;94992.34;;;15.65;73.51
55315;BME280;41619;42.816;23.226;2023-08-07T00:41:44;94988.03;;;15.60;73.43
55315;BME280;41619;42.816;23.226;2023-08-07T00:44:09;94991.56;;;15.57;73.50
55315;BME280;41619;42.816;23.226;2023-08-07T00:46:35;94997.91;;;15.54;73.43
55315;BME280;41619;42.816;23.226;2023-08-07T00:49:02;94998.72;;;15.51;73.64
55315;BME280;41619;42.816;23.226;2023-08-07T00:51:28;94997.56;;;15.49;73.61
55315;BME280;41619;42.816;23.226;2023-08-07T00:53:54;95001.53;;;15.48;73.57
55315;BME280;41619;42.816;23.226;2023-08-07T00:56:20;94998.03;;;15.43;73.59
55315;BME280;41619;42.816;23.226;2023-08-07T00:58:45;94988.16;;;15.42;73.84
55315;BME280;41619;42.816;23.226;2023-08-07T01:01:11;94996.84;;;15.41;73.72
55315;BME280;41619;42.816;23.226;2023-08-07T01:03:37;94994.13;;;15.37;74.01
55315;BME280;41619;42.816;23.226;2023-08-07T01:06:03;94996.50;;;15.35;73.74
55315;BME280;41619;42.816;23.226;2023-08-07T01:08:28;95001.25;;;15.31;74.00
55315;BME280;41619;42.816;23.226;2023-08-07T01:13:44;95009.56;;;15.24;73.68
55315;BME280;41619;42.816;23.226;2023-08-07T01:16:14;95000.59;;;15.17;74.14
55315;BME280;41619;42.816;23.226;2023-08-07T01:18:42;95011.66;;;15.13;74.00
55315;BME280;41619;42.816;23.226;2023-08-07T01:21:20;95003.03;;;15.07;73.93
55315;BME280;41619;42.816;23.226;2023-08-07T01:23:49;95010.13;;;15.05;74.22
55315;BME280;41619;42.816;23.226;2023-08-07T01:26:16;95012.09;;;15.04;74.26
55315;BME280;41619;42.816;23.226;2023-08-07T01:29:04;95012.09;;;15.04;74.29
55315;BME280;41619;42.816;23.226;2023-08-07T01:31:33;95018.78;;;15.03;74.54
55315;BME280;41619;42.816;23.226;2023-08-07T01:34:07;95021.13;;;15.05;74.46
55315;BME280;41619;42.816;23.226;2023-08-07T01:36:37;95025.47;;;15.06;74.48
55315;BME280;41619;42.816;23.226;2023-08-07T01:39:05;95033.34;;;15.07;74.42
55315;BME280;41619;42.816;23.226;2023-08-07T01:41:32;95028.63;;;15.08;74.46
55315;BME280;41619;42.816;23.226;2023-08-07T01:43:58;95026.28;;;15.06;74.41
55315;BME280;41619;42.816;23.226;2023-08-07T01:46:24;95029.41;;;15.08;74.44
55315;BME280;41619;42.816;23.226;2023-08-07T01:48:49;95030.19;;;15.09;74.20
55315;BME280;41619;42.816;23.226;2023-08-07T01:51:15;95032.94;;;15.05;74.16
55315;BME280;41619;42.816;23.226;2023-08-07T01:53:40;95041.66;;;15.00;74.40
55315;BME280;41619;42.816;23.226;2023-08-07T01:56:06;95039.69;;;14.97;74.49
55315;BME280;41619;42.816;23.226;2023-08-07T01:58:31;95044.06;;;14.95;74.66
55315;BME280;41619;42.816;23.226;2023-08-07T02:00:56;95040.94;;;14.89;74.53
55315;BME280;41619;42.816;23.226;2023-08-07T02:03:22;95051.56;;;14.87;74.96
55315;BME280;41619;42.816;23.226;2023-08-07T02:05:47;95046.44;;;14.89;74.71
55315;BME280;41619;42.816;23.226;2023-08-07T02:08:14;95043.69;;;14.89;74.62
55315;BME280;41619;42.816;23.226;2023-08-07T02:10:39;95055.09;;;14.91;74.79
55315;BME280;41619;42.816;23.226;2023-08-07T02:13:05;95056.66;;;14.92;74.60
55315;BME280;41619;42.816;23.226;2023-08-07T02:15:30;95050.75;;;14.94;74.61
55315;BME280;41619;42.816;23.226;2023-08-07T02:17:56;95055.84;;;14.95;74.55
55315;BME280;41619;42.816;23.226;2023-08-07T02:20:21;95058.22;;;14.97;74.35
55315;BME280;41619;42.816;23.226;2023-08-07T02:22:46;95066.84;;;14.99;74.24
55315;BME280;41619;42.816;23.226;2023-08-07T02:25:12;95059.81;;;14.94;74.23
55315;BME280;41619;42.816;23.226;2023-08-07T02:27:38;95055.09;;;14.91;74.50
55315;BME280;41619;42.816;23.226;2023-08-07T02:30:04;95050.78;;;14.90;74.22
55315;BME280;41619;42.816;23.226;2023-08-07T02:32:30;95050.00;;;14.90;74.62
55315;BME280;41619;42.816;23.226;2023-08-07T02:34:56;95053.53;;;14.87;74.56
55315;BME280;41619;42.816;23.226;2023-08-07T02:37:21;95061.00;;;14.86;74.63
55315;BME280;41619;42.816;23.226;2023-08-07T02:39:47;95062.59;;;14.83;74.60
55315;BME280;41619;42.816;23.226;2023-08-07T02:42:12;95063.03;;;14.78;74.69
55315;BME280;41619;42.816;23.226;2023-08-07T02:44:37;95069.72;;;14.77;74.67
55315;BME280;41619;42.816;23.226;2023-08-07T02:47:03;95068.94;;;14.77;74.84
55315;BME280;41619;42.816;23.226;2023-08-07T02:49:29;95068.56;;;14.75;74.79
55315;BME280;41619;42.816;23.226;2023-08-07T02:51:54;95071.75;;;14.70;74.71
55315;BME280;41619;42.816;23.226;2023-08-07T02:54:19;95064.25;;;14.67;75.17
55315;BME280;41619;42.816;23.226;2023-08-07T02:56:45;95069.38;;;14.65;75.21
55315;BME280;41619;42.816;23.226;2023-08-07T02:59:10;95070.97;;;14.62;75.24
55315;BME280;41619;42.816;23.226;2023-08-07T03:01:36;95075.69;;;14.62;75.31
55315;BME280;41619;42.816;23.226;2023-08-07T03:04:01;95076.88;;;14.61;75.31
55315;BME280;41619;42.816;23.226;2023-08-07T03:06:26;95076.47;;;14.62;75.26
55315;BME280;41619;42.816;23.226;2023-08-07T03:08:52;95075.28;;;14.63;75.25
55315;BME280;41619;42.816;23.226;2023-08-07T03:11:17;95080.03;;;14.63;75.32
55315;BME280;41619;42.816;23.226;2023-08-07T03:13:43;95074.13;;;14.61;75.14
55315;BME280;41619;42.816;23.226;2023-08-07T03:16:09;95072.56;;;14.60;75.10
55315;BME280;41619;42.816;23.226;2023-08-07T03:18:35;95071.78;;;14.59;75.11
55315;BME280;41619;42.816;23.226;2023-08-07T03:21:00;95072.19;;;14.58;75.13
55315;BME280;41619;42.816;23.226;2023-08-07T03:23:28;95069.03;;;14.56;75.30
55315;BME280;41619;42.816;23.226;2023-08-07T03:28:32;95082.06;;;14.51;75.19
55315;BME280;41619;42.816;23.226;2023-08-07T03:30:58;95084.81;;;14.51;75.34
55315;BME280;41619;42.816;23.226;2023-08-07T03:33:23;95086.78;;;14.51;75.15
55315;BME280;41619;42.816;23.226;2023-08-07T03:35:49;95096.19;;;14.50;75.16
55315;BME280;41619;42.816;23.226;2023-08-07T03:38:14;95103.66;;;14.49;75.28
55315;BME280;41619;42.816;23.226;2023-08-07T03:40:39;95104.06;;;14.48;75.08
55315;BME280;41619;42.816;23.226;2023-08-07T03:43:05;95107.22;;;14.46;74.74
55315;BME280;41619;42.816;23.226;2023-08-07T03:45:30;95115.88;;;14.45;75.35
55315;BME280;41619;42.816;23.226;2023-08-07T03:47:56;95115.09;;;14.44;75.18
55315;BME280;41619;42.816;23.226;2023-08-07T03:50:21;95118.22;;;14.43;75.42
55315;BME280;41619;42.816;23.226;2023-08-07T03:52:46;95119.41;;;14.42;75.11
55315;BME280;41619;42.816;23.226;2023-08-07T03:55:12;95111.94;;;14.42;75.31
55315;BME280;41619;42.816;23.226;2023-08-07T03:57:37;95115.47;;;14.43;75.16
55315;BME280;41619;42.816;23.226;2023-08-07T04:00:03;95116.28;;;14.43;75.33
55315;BME280;41619;42.816;23.226;2023-08-07T04:02:28;95118.22;;;14.43;75.34
55315;BME280;41619;42.816;23.226;2023-08-07T04:04:55;95122.56;;;14.44;75.42
55315;BME280;41619;42.816;23.226;2023-08-07T04:07:21;95124.94;;;14.45;75.61
55315;BME280;41619;42.816;23.226;2023-08-07T04:09:47;95126.09;;;14.48;75.48
55315;BME280;41619;42.816;23.226;2023-08-07T04:12:12;95130.84;;;14.51;75.58
55315;BME280;41619;42.816;23.226;2023-08-07T04:14:38;95144.19;;;14.56;75.42
55315;BME280;41619;42.816;23.226;2023-08-07T04:17:03;95140.63;;;14.59;75.37
55315;BME280;41619;42.816;23.226;2023-08-07T04:19:29;95138.66;;;14.60;75.30
55315;BME280;41619;42.816;23.226;2023-08-07T04:21:54;95142.59;;;14.62;75.62
55315;BME280;41619;42.816;23.226;2023-08-07T04:24:20;95141.78;;;14.65;75.44
55315;BME280;41619;42.816;23.226;2023-08-07T04:26:45;95152.00;;;14.68;75.65
55315;BME280;41619;42.816;23.226;2023-08-07T04:29:10;95155.13;;;14.74;75.36
55315;BME280;41619;42.816;23.226;2023-08-07T04:31:36;95158.25;;;14.79;75.20
55315;BME280;41619;42.816;23.226;2023-08-07T04:34:01;95161.75;;;14.87;75.28
55315;BME280;41619;42.816;23.226;2023-08-07T04:36:26;95168.44;;;14.93;75.12
55315;BME280;41619;42.816;23.226;2023-08-07T04:38:52;95161.31;;;14.99;74.88
55315;BME280;41619;42.816;23.226;2023-08-07T04:41:17;95167.59;;;15.03;74.79
55315;BME280;41619;42.816;23.226;2023-08-07T04:43:43;95170.34;;;15.10;74.63
55315;BME280;41619;42.816;23.226;2023-08-07T04:46:09;95161.66;;;15.15;74.63
55315;BME280;41619;42.816;23.226;2023-08-07T04:48:35;95159.63;;;15.23;74.56
55315;BME280;41619;42.816;23.226;2023-08-07T04:51:01;95160.78;;;15.33;74.39
55315;BME280;41619;42.816;23.226;2023-08-07T04:53:27;95160.34;;;15.38;74.11
55315;BME280;41619;42.816;23.226;2023-08-07T04:55:52;95156.00;;;15.44;74.05
55315;BME280;41619;42.816;23.226;2023-08-07T04:58:17;95165.00;;;15.52;73.97
55315;BME280;41619;42.816;23.226;2023-08-07T05:00:43;95157.47;;;15.56;73.79
55315;BME280;41619;42.816;23.226;2023-08-07T05:03:08;95158.66;;;15.62;73.77
55315;BME280;41619;42.816;23.226;2023-08-07T05:05:34;95156.25;;;15.67;73.60
55315;BME280;41619;42.816;23.226;2023-08-07T05:07:59;95150.66;;;15.74;73.38
55315;BME280;41619;42.816;23.226;2023-08-07T05:10:25;95151.81;;;15.81;73.30
55315;BME280;41619;42.816;23.226;2023-08-07T05:12:50;95149.81;;;15.85;73.38
55315;BME280;41619;42.816;23.226;2023-08-07T05:15:25;95149.78;;;15.88;72.94
55315;BME280;41619;42.816;23.226;2023-08-07T05:17:51;95149.72;;;15.95;72.71
55315;BME280;41619;42.816;23.226;2023-08-07T05:20:18;95146.13;;;15.98;72.67
55315;BME280;41619;42.816;23.226;2023-08-07T05:22:44;95142.97;;;16.03;72.47
55315;BME280;41619;42.816;23.226;2023-08-07T05:25:09;95153.97;;;16.07;72.18
55315;BME280;41619;42.816;23.226;2023-08-07T05:27:36;95144.06;;;16.10;71.75
55315;BME280;41619;42.816;23.226;2023-08-07T05:30:02;95139.72;;;16.12;71.84
55315;BME280;41619;42.816;23.226;2023-08-07T05:32:28;95142.84;;;16.14;71.58
55315;BME280;41619;42.816;23.226;2023-08-07T05:34:54;95140.84;;;16.18;71.27
55315;BME280;41619;42.816;23.226;2023-08-07T05:37:19;95135.72;;;16.20;71.24
55315;BME280;41619;42.816;23.226;2023-08-07T05:39:44;95148.66;;;16.27;70.95
55315;BME280;41619;42.816;23.226;2023-08-07T05:42:10;95153.72;;;16.32;70.81
55315;BME280;41619;42.816;23.226;2023-08-07T05:44:37;95160.75;;;16.40;70.65
55315;BME280;41619;42.816;23.226;2023-08-07T05:47:02;95157.53;;;16.45;70.27
55315;BME280;41619;42.816;23.226;2023-08-07T05:49:28;95161.03;;;16.49;70.12
55315;BME280;41619;42.816;23.226;2023-08-07T05:51:53;95162.56;;;16.57;69.89
55315;BME280;41619;42.816;23.226;2023-08-07T05:54:19;95172.75;;;16.64;69.91
55315;BME280;41619;42.816;23.226;2023-08-07T05:56:44;95173.88;;;16.70;69.82
55315;BME280;41619;42.816;23.226;2023-08-07T05:59:09;95172.25;;;16.76;69.66
55315;BME280;41619;42.816;23.226;2023-08-07T06:01:35;95173.00;;;16.80;69.32
55315;BME280;41619;42.816;23.226;2023-08-07T06:04:02;95169.78;;;16.85;69.24
55315;BME280;41619;42.816;23.226;2023-08-07T06:06:27;95167.31;;;16.91;69.00
55315;BME280;41619;42.816;23.226;2023-08-07T06:08:56;95166.84;;;17.00;68.57
55315;BME280;41619;42.816;23.226;2023-08-07T06:11:21;95172.22;;;17.10;68.53
55315;BME280;41619;42.816;23.226;2023-08-07T06:13:48;95168.91;;;17.22;68.30
55315;BME280;41619;42.816;23.226;2023-08-07T06:16:14;95160.53;;;17.30;67.75
55315;BME280;41619;42.816;23.226;2023-08-07T06:18:39;95154.53;;;17.35;67.57
55315;BME280;41619;42.816;23.226;2023-08-07T06:21:05;95159.59;;;17.40;67.47
55315;BME280;41619;42.816;23.226;2023-08-07T06:23:34;95158.31;;;17.48;67.50
55315;BME280;41619;42.816;23.226;2023-08-07T06:26:00;95153.75;;;17.61;67.22
55315;BME280;41619;42.816;23.226;2023-08-07T06:28:29;95153.22;;;17.73;67.08
55315;BME280;41619;42.816;23.226;2023-08-07T06:31:03;95153.88;;;17.81;66.62
55315;BME280;41619;42.816;23.226;2023-08-07T06:33:30;95151.81;;;17.89;66.24
55315;BME280;41619;42.816;23.226;2023-08-07T06:35:56;95153.25;;;17.97;65.95
55315;BME280;41619;42.816;23.226;2023-08-07T06:38:22;95153.94;;;18.04;65.93
55315;BME280;41619;42.816;23.226;2023-08-07T06:40:47;95153.03;;;18.11;65.54
55315;BME280;41619;42.816;23.226;2023-08-07T06:43:12;95147.00;;;18.16;65.24
55315;BME280;41619;42.816;23.226;2023-08-07T06:45:38;95150.88;;;18.22;65.12
55315;BME280;41619;42.816;23.226;2023-08-07T06:48:04;95151.94;;;18.28;64.50
55315;BME280;41619;42.816;23.226;2023-08-07T06:50:29;95153.00;;;18.34;64.78
55315;BME280;41619;42.816;23.226;2023-08-07T06:52:54;95143.38;;;18.42;64.51
55315;BME280;41619;42.816;23.226;2023-08-07T06:55:20;95151.19;;;18.48;64.17
55315;BME280;41619;42.816;23.226;2023-08-07T06:57:46;95144.72;;;18.54;63.57
55315;BME280;41619;42.816;23.226;2023-08-07T07:00:11;95151.72;;;18.62;63.39
55315;BME280;41619;42.816;23.226;2023-08-07T07:02:37;95156.72;;;18.71;63.13
55315;BME280;41619;42.816;23.226;2023-08-07T07:05:03;95149.44;;;18.81;62.72
55315;BME280;41619;42.816;23.226;2023-08-07T07:07:30;95152.75;;;18.92;62.43
55315;BME280;41619;42.816;23.226;2023-08-07T07:09:55;95153.41;;;18.99;62.27
55315;BME280;41619;42.816;23.226;2023-08-07T07:12:23;95149.44;;;19.00;61.77
55315;BME280;41619;42.816;23.226;2023-08-07T07:14:48;95155.69;;;19.04;61.61
55315;BME280;41619;42.816;23.226;2023-08-07T07:17:14;95151.19;;;19.11;61.65
55315;BME280;41619;42.816;23.226;2023-08-07T07:19:39;95154.63;;;19.18;61.40
55315;BME280;41619;42.816;23.226;2023-08-07T07:22:04;95159.16;;;19.28;61.24
55315;BME280;41619;42.816;23.226;2023-08-07T07:24:30;95148.25;;;19.38;60.81
55315;BME280;41619;42.816;23.226;2023-08-07T07:26:55;95145.66;;;19.47;60.41
55315;BME280;41619;42.816;23.226;2023-08-07T07:29:20;95140.34;;;19.56;60.40
55315;BME280;41619;42.816;23.226;2023-08-07T07:31:46;95127.44;;;19.65;60.28
55315;BME280;41619;42.816;23.226;2023-08-07T07:34:12;95133.97;;;19.75;59.78
55315;BME280;41619;42.816;23.226;2023-08-07T07:36:37;95127.34;;;19.85;59.52
55315;BME280;41619;42.816;23.226;2023-08-07T07:39:03;95131.63;;;19.90;59.37
55315;BME280;41619;42.816;23.226;2023-08-07T07:41:28;95140.13;;;19.99;58.88
55315;BME280;41619;42.816;23.226;2023-08-07T07:43:54;95133.59;;;20.06;58.54
55315;BME280;41619;42.816;23.226;2023-08-07T07:46:22;95142.47;;;20.17;58.52
55315;BME280;41619;42.816;23.226;2023-08-07T07:48:47;95135.00;;;20.30;57.86
55315;BME280;41619;42.816;23.226;2023-08-07T07:51:13;95141.94;;;20.38;57.57
55315;BME280;41619;42.816;23.226;2023-08-07T07:53:38;95132.91;;;20.50;57.13
55315;BME280;41619;42.816;23.226;2023-08-07T07:56:03;95140.88;;;20.65;56.99
55315;BME280;41619;42.816;23.226;2023-08-07T07:58:29;95130.00;;;20.70;56.43
55315;BME280;41619;42.816;23.226;2023-08-07T08:00:54;95130.91;;;20.80;55.84
55315;BME280;41619;42.816;23.226;2023-08-07T08:03:20;95128.19;;;20.93;55.74
55315;BME280;41619;42.816;23.226;2023-08-07T08:05:49;95132.69;;;21.03;55.03
55315;BME280;41619;42.816;23.226;2023-08-07T08:08:14;95134.81;;;21.11;54.75
55315;BME280;41619;42.816;23.226;2023-08-07T08:10:40;95139.31;;;21.22;54.58
55315;BME280;41619;42.816;23.226;2023-08-07T08:13:08;95135.78;;;21.34;54.05
55315;BME280;41619;42.816;23.226;2023-08-07T08:15:34;95138.59;;;21.46;53.85
55315;BME280;41619;42.816;23.226;2023-08-07T08:17:59;95127.91;;;21.58;53.26
55315;BME280;41619;42.816;23.226;2023-08-07T08:20:24;95128.69;;;21.71;53.20
55315;BME280;41619;42.816;23.226;2023-08-07T08:22:50;95125.00;;;21.74;52.54
55315;BME280;41619;42.816;23.226;2023-08-07T08:25:16;95123.44;;;21.86;52.18
55315;BME280;41619;42.816;23.226;2023-08-07T08:27:43;95112.97;;;22.02;51.80
55315;BME280;41619;42.816;23.226;2023-08-07T08:30:09;95110.97;;;22.16;51.42
55315;BME280;41619;42.816;23.226;2023-08-07T08:32:34;95114.50;;;22.29;51.05
55315;BME280;41619;42.816;23.226;2023-08-07T08:35:00;95100.53;;;22.42;50.44
55315;BME280;41619;42.816;23.226;2023-08-07T08:37:25;95109.31;;;22.53;49.91
55315;BME280;41619;42.816;23.226;2023-08-07T08:39:51;95110.47;;;22.64;49.59
55315;BME280;41619;42.816;23.226;2023-08-07T08:42:16;95108.88;;;22.76;49.04
55315;BME280;41619;42.816;23.226;2023-08-07T08:44:54;95099.38;;;22.86;48.08
55315;BME280;41619;42.816;23.226;2023-08-07T08:47:21;95099.94;;;23.03;48.42
55315;BME280;41619;42.816;23.226;2023-08-07T08:49:49;95099.44;;;23.17;47.89
55315;BME280;41619;42.816;23.226;2023-08-07T08:52:16;95099.38;;;23.30;47.54
55315;BME280;41619;42.816;23.226;2023-08-07T08:54:43;95103.94;;;23.46;47.30
55315;BME280;41619;42.816;23.226;2023-08-07T08:57:09;95103.22;;;23.54;46.79
55315;BME280;41619;42.816;23.226;2023-08-07T08:59:34;95099.38;;;23.61;46.21
55315;BME280;41619;42.816;23.226;2023-08-07T09:02:00;95106.13;;;23.73;46.15
55315;BME280;41619;42.816;23.226;2023-08-07T09:04:25;95106.47;;;23.84;45.74
55315;BME280;41619;42.816;23.226;2023-08-07T09:06:51;95089.59;;;23.97;45.42
55315;BME280;41619;42.816;23.226;2023-08-07T09:09:19;95097.38;;;24.11;45.19
55315;BME280;41619;42.816;23.226;2023-08-07T09:11:46;95089.66;;;24.24;44.66
55315;BME280;41619;42.816;23.226;2023-08-07T09:14:16;95086.44;;;24.35;44.30
55315;BME280;41619;42.816;23.226;2023-08-07T09:16:44;95081.19;;;24.46;43.72
55315;BME280;41619;42.816;23.226;2023-08-07T09:19:11;95074.66;;;24.58;43.41
55315;BME280;41619;42.816;23.226;2023-08-07T09:21:37;95072.81;;;24.73;43.34
55315;BME280;41619;42.816;23.226;2023-08-07T09:24:02;95077.59;;;24.91;42.77
55315;BME280;41619;42.816;23.226;2023-08-07T09:26:28;95081.50;;;25.03;42.50
55315;BME280;41619;42.816;23.226;2023-08-07T09:28:53;95074.19;;;25.05;41.73
55315;BME280;41619;42.816;23.226;2023-08-07T09:31:23;95068.59;;;25.05;41.37
55315;BME280;41619;42.816;23.226;2023-08-07T09:33:51;95073.88;;;25.13;41.45
55315;BME280;41619;42.816;23.226;2023-08-07T09:36:17;95068.41;;;25.18;41.36
55315;BME280;41619;42.816;23.226;2023-08-07T09:38:45;95066.69;;;25.21;41.14
55315;BME280;41619;42.816;23.226;2023-08-07T09:41:17;95067.00;;;25.32;41.07
55315;BME280;41619;42.816;23.226;2023-08-07T09:43:43;95057.59;;;25.44;41.08
55315;BME280;41619;42.816;23.226;2023-08-07T09:46:08;95053.22;;;25.52;41.04
55315;BME280;41619;42.816;23.226;2023-08-07T09:48:41;95056.34;;;25.54;39.64
55315;BME280;41619;42.816;23.226;2023-08-07T09:51:07;95052.28;;;25.46;39.35
55315;BME280;41619;42.816;23.226;2023-08-07T09:53:33;95059.78;;;25.49;39.05
55315;BME280;41619;42.816;23.226;2023-08-07T09:55:59;95054.78;;;25.53;39.23
55315;BME280;41619;42.816;23.226;2023-08-07T09:58:26;95063.78;;;25.66;39.06
55315;BME280;41619;42.816;23.226;2023-08-07T10:00:51;95053.31;;;25.76;38.60
55315;BME280;41619;42.816;23.226;2023-08-07T10:03:25;95056.09;;;25.85;38.08
55315;BME280;41619;42.816;23.226;2023-08-07T10:05:50;95064.44;;;25.94;38.36
55315;BME280;41619;42.816;23.226;2023-08-07T10:08:16;95070.00;;;26.04;37.81
55315;BME280;41619;42.816;23.226;2023-08-07T10:10:42;95063.56;;;26.12;37.51
55315;BME280;41619;42.816;23.226;2023-08-07T10:13:09;95070.06;;;26.18;37.41
55315;BME280;41619;42.816;23.226;2023-08-07T10:15:37;95070.50;;;26.26;37.60
55315;BME280;41619;42.816;23.226;2023-08-07T10:18:02;95060.16;;;26.32;37.40
55315;BME280;41619;42.816;23.226;2023-08-07T10:20:30;95060.13;;;26.41;37.26
55315;BME280;41619;42.816;23.226;2023-08-07T10:23:07;95063.63;;;26.51;37.09
55315;BME280;41619;42.816;23.226;2023-08-07T10:25:35;95055.16;;;26.60;36.94
55315;BME280;41619;42.816;23.226;2023-08-07T10:28:02;95065.53;;;26.69;37.09
55315;BME280;41619;42.816;23.226;2023-08-07T10:30:29;95054.53;;;26.80;36.80
55315;BME280;41619;42.816;23.226;2023-08-07T10:32:57;95056.41;;;26.98;36.65
55315;BME280;41619;42.816;23.226;2023-08-07T10:35:30;95057.09;;;27.07;36.47
55315;BME280;41619;42.816;23.226;2023-08-07T10:38:06;95058.59;;;27.18;35.85
55315;BME280;41619;42.816;23.226;2023-08-07T10:40:32;95048.28;;;27.29;35.54
55315;BME280;41619;42.816;23.226;2023-08-07T10:42:59;95036.41;;;27.34;35.50
55315;BME280;41619;42.816;23.226;2023-08-07T10:45:27;95043.06;;;27.37;35.37
55315;BME280;41619;42.816;23.226;2023-08-07T10:50:35;95044.31;;;27.51;34.95
55315;BME280;41619;42.816;23.226;2023-08-07T10:53:04;95036.84;;;27.62;35.26
55315;BME280;41619;42.816;23.226;2023-08-07T10:55:46;95028.34;;;27.71;35.28
55315;BME280;41619;42.816;23.226;2023-08-07T10:58:32;95027.41;;;27.95;34.41
55315;BME280;41619;42.816;23.226;2023-08-07T11:07:26;95014.72;;;28.40;34.22
55315;BME280;41619;42.816;23.226;2023-08-07T11:09:53;95011.00;;;28.49;34.44
55315;BME280;41619;42.816;23.226;2023-08-07T11:12:19;95007.69;;;28.50;34.28
55315;BME280;41619;42.816;23.226;2023-08-07T11:14:45;94996.44;;;28.50;34.18
55315;BME280;41619;42.816;23.226;2023-08-07T11:17:11;94998.81;;;28.57;34.33
55315;BME280;41619;42.816;23.226;2023-08-07T11:19:38;94998.81;;;28.57;34.22
55315;BME280;41619;42.816;23.226;2023-08-07T11:22:03;95001.41;;;28.61;34.44
55315;BME280;41619;42.816;23.226;2023-08-07T11:24:29;95000.13;;;28.62;34.55
55315;BME280;41619;42.816;23.226;2023-08-07T11:26:55;94998.41;;;28.64;34.42
55315;BME280;41619;42.816;23.226;2023-08-07T11:29:21;95003.03;;;28.68;34.58
55315;BME280;41619;42.816;23.226;2023-08-07T11:31:50;94997.19;;;28.71;34.71
55315;BME280;41619;42.816;23.226;2023-08-07T11:34:17;94999.56;;;28.78;34.25
55315;BME280;41619;42.816;23.226;2023-08-07T11:36:43;94999.94;;;28.86;34.14
55315;BME280;41619;42.816;23.226;2023-08-07T11:39:10;94994.88;;;28.95;33.79
55315;BME280;41619;42.816;23.226;2023-08-07T11:41:36;94996.16;;;28.94;33.84
55315;BME280;41619;42.816;23.226;2023-08-07T11:44:01;94988.47;;;28.95;33.71
55315;BME280;41619;42.816;23.226;2023-08-07T11:46:27;94985.72;;;29.01;33.64
55315;BME280;41619;42.816;23.226;2023-08-07T11:48:52;94976.09;;;29.13;33.94
55315;BME280;41619;42.816;23.226;2023-08-07T11:51:20;94995.09;;;29.18;33.69
55315;BME280;41619;42.816;23.226;2023-08-07T11:53:45;94987.03;;;29.31;33.74
55315;BME280;41619;42.816;23.226;2023-08-07T11:56:12;94985.34;;;29.45;33.68
55315;BME280;41619;42.816;23.226;2023-08-07T11:58:41;94981.84;;;29.55;33.61
55315;BME280;41619;42.816;23.226;2023-08-07T12:01:11;94982.97;;;29.64;33.66
55315;BME280;41619;42.816;23.226;2023-08-07T12:03:42;94988.59;;;29.64;33.91
55315;BME280;41619;42.816;23.226;2023-08-07T12:06:09;94976.44;;;29.52;34.02
55315;BME280;41619;42.816;23.226;2023-08-07T12:08:39;94978.59;;;29.37;33.82
55315;BME280;41619;42.816;23.226;2023-08-07T12:11:06;94979.16;;;29.09;33.79
55315;BME280;41619;42.816;23.226;2023-08-07T12:13:32;94979.41;;;28.85;34.13
55315;BME280;41619;42.816;23.226;2023-08-07T12:16:01;94984.78;;;28.63;34.36
55315;BME280;41619;42.816;23.226;2023-08-07T12:18:30;94983.28;;;28.42;34.95
55315;BME280;41619;42.816;23.226;2023-08-07T12:21:01;94984.03;;;28.22;34.68
55315;BME280;41619;42.816;23.226;2023-08-07T12:23:27;94974.31;;;28.02;35.27
55315;BME280;41619;42.816;23.226;2023-08-07T12:25:53;94965.66;;;27.86;35.82
55315;BME280;41619;42.816;23.226;2023-08-07T12:28:18;94960.88;;;27.71;35.51
55315;BME280;41619;42.816;23.226;2023-08-07T12:30:47;94972.59;;;27.55;35.99
55315;BME280;41619;42.816;23.226;2023-08-07T12:33:13;94971.16;;;27.45;36.35
55315;BME280;41619;42.816;23.226;2023-08-07T12:35:40;94968.97;;;27.34;36.12
55315;BME280;41619;42.816;23.226;2023-08-07T12:38:06;94980.78;;;27.24;36.24
55315;BME280;41619;42.816;23.226;2023-08-07T12:40:32;94984.66;;;27.11;36.46
55315;BME280;41619;42.816;23.226;2023-08-07T12:42:58;94988.34;;;27.03;36.42
55315;BME280;41619;42.816;23.226;2023-08-07T12:45:24;94985.25;;;27.01;36.59
55315;BME280;41619;42.816;23.226;2023-08-07T12:47:49;94989.91;;;27.04;36.92
55315;BME280;41619;42.816;23.226;2023-08-07T12:50:15;94998.91;;;27.08;36.83
55315;BME280;41619;42.816;23.226;2023-08-07T12:52:41;94993.97;;;27.03;36.91
55315;BME280;41619;42.816;23.226;2023-08-07T12:55:06;94992.13;;;27.00;36.86
55315;BME280;41619;42.816;23.226;2023-08-07T12:57:32;94988.69;;;26.96;37.07
55315;BME280;41619;42.816;23.226;2023-08-07T12:59:58;95003.31;;;26.85;37.23